Time;durP1;ratioP1;P1;durP2;ratioP2;P2;SDS_P1;SDS_P2;PMS_P1;PMS_P2;Temp;Humidity;BMP_temperature;BMP_pressure;BME280_temperature;BME280_humidity;BME280_pressure;Samples;Min_cycle;Max_cycle;Signal;HPM_P1;HPM_P2
2022/09/15 00:00:57;;;;;;;17.67;12.30;;;16.30;99.90;;;;;;5054746;28;20427;-77
2022/09/15 00:03:24;;;;;;;18.27;12.13;;;16.30;99.90;;;;;;5053507;28;20963;-76
2022/09/15 00:05:53;;;;;;;18.13;12.43;;;16.30;99.90;;;;;;5042819;28;20479;-77
2022/09/15 00:08:21;;;;;;;18.70;12.77;;;16.20;99.90;;;;;;5035037;28;20441;-76
2022/09/15 00:10:48;;;;;;;22.30;13.40;;;16.20;99.90;;;;;;5035212;28;20478;-76
2022/09/15 00:13:16;;;;;;;18.80;12.63;;;16.20;99.90;;;;;;5034952;28;20996;-76
2022/09/15 00:15:43;;;;;;;20.00;12.80;;;16.20;99.90;;;;;;5044593;28;20936;-76
2022/09/15 00:18:09;;;;;;;20.27;12.70;;;16.20;99.90;;;;;;5054422;28;20432;-76
2022/09/15 00:20:40;;;;;;;19.73;13.40;;;16.20;99.90;;;;;;5053896;28;20916;-76
2022/09/15 00:23:06;;;;;;;20.73;12.83;;;16.20;99.90;;;;;;5053943;28;21029;-76
2022/09/15 00:25:34;;;;;;;22.53;13.70;;;16.20;99.90;;;;;;5054137;28;20436;-76
2022/09/15 00:28:01;;;;;;;20.70;13.27;;;16.10;99.90;;;;;;5054212;28;20432;-76
2022/09/15 00:30:28;;;;;;;23.13;14.30;;;16.20;99.90;;;;;;5044026;28;20512;-76
2022/09/15 00:32:55;;;;;;;23.13;13.30;;;16.20;99.90;;;;;;5035632;28;20892;-77
2022/09/15 00:35:21;;;;;;;27.10;14.40;;;16.20;99.90;;;;;;5034373;28;20514;-76
2022/09/15 00:37:48;;;;;;;26.77;15.67;;;16.20;99.90;;;;;;5034521;28;20853;-77
2022/09/15 00:40:14;;;;;;;28.13;15.47;;;16.20;99.90;;;;;;5041660;28;20453;-78
2022/09/15 00:42:42;;;;;;;23.20;13.93;;;16.20;99.90;;;;;;5053242;28;20453;-76
2022/09/15 00:45:16;;;;;;;34.53;16.80;;;16.20;99.90;;;;;;5052033;28;20507;-77
2022/09/15 00:47:43;;;;;;;27.40;14.17;;;16.20;99.90;;;;;;5034225;28;20803;-76
2022/09/15 00:50:13;;;;;;;24.57;15.00;;;16.20;99.90;;;;;;5034813;28;20428;-76
2022/09/15 00:52:44;;;;;;;28.60;15.20;;;16.20;99.90;;;;;;5034359;28;20466;-76
2022/09/15 00:55:15;;;;;;;25.03;15.40;;;16.10;99.90;;;;;;5034563;28;20425;-76
2022/09/15 00:57:49;;;;;;;24.97;15.43;;;16.10;99.90;;;;;;5034364;28;20429;-77
2022/09/15 01:00:20;;;;;;;27.87;15.17;;;16.10;99.90;;;;;;5053425;28;20956;-76
2022/09/15 01:02:48;;;;;;;30.57;16.10;;;16.00;99.90;;;;;;5051372;28;20449;-76
2022/09/15 01:05:18;;;;;;;25.57;16.43;;;16.00;99.90;;;;;;5037929;28;20446;-77
2022/09/15 01:07:49;;;;;;;29.60;17.77;;;16.00;99.90;;;;;;5038191;28;20437;-76
2022/09/15 01:10:20;;;;;;;29.43;17.73;;;16.00;99.90;;;;;;5034166;28;20458;-76
2022/09/15 01:12:48;;;;;;;31.20;17.50;;;16.00;99.90;;;;;;5034699;28;20958;-77
2022/09/15 01:15:16;;;;;;;30.77;18.10;;;15.90;99.90;;;;;;5033911;28;20446;-77
2022/09/15 01:17:54;;;;;;;27.20;16.50;;;15.90;99.90;;;;;;5033922;28;20428;-76
2022/09/15 01:20:49;;;;;;;28.40;16.37;;;15.90;99.90;;;;;;5033735;28;20450;-76
2022/09/15 01:23:35;;;;;;;24.97;15.50;;;15.90;99.90;;;;;;5037200;28;21118;-77
2022/09/15 01:26:28;;;;;;;29.00;16.77;;;15.90;99.90;;;;;;5039373;28;20433;-77
2022/09/15 01:29:21;;;;;;;25.27;16.17;;;15.90;99.90;;;;;;5036044;28;20424;-76
2022/09/15 01:34:44;;;;;;;23.43;16.20;;;15.90;99.90;;;;;;5048465;28;20500;-76
2022/09/15 01:37:17;;;;;;;25.40;15.80;;;15.90;99.90;;;;;;5034726;28;20429;-77
2022/09/15 01:39:48;;;;;;;22.07;15.70;;;16.00;99.90;;;;;;5048501;28;20944;-77
2022/09/15 01:42:16;;;;;;;27.67;15.63;;;16.00;99.90;;;;;;5033652;28;20455;-78
2022/09/15 01:44:48;;;;;;;24.50;16.07;;;16.00;99.90;;;;;;5033491;28;20445;-77
2022/09/15 01:47:18;;;;;;;22.40;15.47;;;16.00;99.90;;;;;;5044467;28;20788;-77
2022/09/15 01:49:48;;;;;;;21.70;15.13;;;15.90;99.90;;;;;;5052769;28;20454;-76
2022/09/15 01:52:17;;;;;;;23.70;15.73;;;16.00;99.90;;;;;;5043452;28;20449;-76
2022/09/15 01:54:47;;;;;;;25.77;15.13;;;15.90;99.90;;;;;;5033442;28;20477;-76
2022/09/15 01:57:16;;;;;;;19.60;14.37;;;15.90;99.90;;;;;;5033098;28;20511;-77
2022/09/15 01:59:42;;;;;;;24.20;15.80;;;15.90;99.90;;;;;;5046694;28;20523;-78
2022/09/15 02:02:15;;;;;;;26.00;16.07;;;15.90;99.90;;;;;;5050851;28;20449;-76
2022/09/15 02:04:47;;;;;;;26.73;16.60;;;15.90;99.90;;;;;;5045967;28;21130;-78
2022/09/15 02:07:21;;;;;;;24.50;16.60;;;15.90;99.90;;;;;;5034121;28;20526;-77
2022/09/15 02:09:54;;;;;;;25.17;17.77;;;15.90;99.90;;;;;;5033119;28;20460;-76
2022/09/15 02:12:32;;;;;;;27.20;17.87;;;15.90;99.90;;;;;;5032869;28;20550;-78
2022/09/15 02:15:06;;;;;;;26.47;16.67;;;15.80;99.90;;;;;;5032873;28;20462;-78
2022/09/15 02:17:41;;;;;;;30.77;17.60;;;15.80;99.90;;;;;;5032648;28;20516;-78
2022/09/15 02:20:14;;;;;;;24.87;16.80;;;15.70;99.90;;;;;;5040937;28;20460;-77
2022/09/15 02:22:45;;;;;;;30.67;17.93;;;15.70;99.90;;;;;;5047134;28;20424;-76
2022/09/15 02:25:17;;;;;;;26.10;17.43;;;15.70;99.90;;;;;;5041146;28;20453;-77
2022/09/15 02:27:47;;;;;;;33.60;18.67;;;15.70;99.90;;;;;;5051854;28;20515;-77
2022/09/15 02:30:18;;;;;;;24.10;15.70;;;15.70;99.90;;;;;;5051558;28;20445;-76
2022/09/15 02:32:50;;;;;;;26.07;17.33;;;15.60;99.90;;;;;;5048408;28;20531;-76
2022/09/15 02:35:17;;;;;;;24.87;16.37;;;15.60;99.90;;;;;;5050230;28;20453;-76
2022/09/15 02:37:45;;;;;;;24.60;15.07;;;15.60;99.90;;;;;;5032400;28;20943;-77
2022/09/15 02:40:12;;;;;;;24.90;16.47;;;15.60;99.90;;;;;;5033680;28;20454;-77
2022/09/15 02:42:39;;;;;;;29.13;15.70;;;15.60;99.90;;;;;;5032455;28;20436;-76
2022/09/15 02:45:06;;;;;;;20.47;13.53;;;15.60;99.90;;;;;;5032393;28;20451;-76
2022/09/15 02:47:33;;;;;;;18.20;13.07;;;15.60;99.90;;;;;;5031964;28;20455;-79
2022/09/15 02:50:01;;;;;;;20.97;13.50;;;15.60;99.90;;;;;;5032280;28;20446;-77
2022/09/15 02:52:27;;;;;;;21.30;12.20;;;15.60;99.90;;;;;;5034501;28;20468;-76
2022/09/15 02:54:54;;;;;;;22.17;13.27;;;15.60;99.90;;;;;;5051368;28;20444;-76
2022/09/15 02:57:21;;;;;;;18.40;12.83;;;15.60;99.90;;;;;;5033873;28;20466;-76
2022/09/15 03:02:33;;;;;;;16.00;11.60;;;15.50;99.90;;;;;;5034041;28;20924;-78
2022/09/15 03:05:01;;;;;;;16.53;11.03;;;15.50;99.90;;;;;;5031992;28;20453;-77
2022/09/15 03:07:28;;;;;;;17.53;10.87;;;15.50;99.90;;;;;;5047016;28;20862;-76
2022/09/15 03:09:55;;;;;;;16.10;11.13;;;15.50;99.90;;;;;;5051274;28;20527;-76
2022/09/15 03:12:22;;;;;;;16.07;11.50;;;15.50;99.90;;;;;;5049521;28;21074;-76
2022/09/15 03:14:49;;;;;;;14.80;10.97;;;15.50;99.90;;;;;;5051387;28;20476;-77
2022/09/15 03:17:15;;;;;;;13.03;9.30;;;15.40;99.90;;;;;;5043905;28;20464;-76
2022/09/15 03:19:42;;;;;;;11.00;9.43;;;15.40;99.90;;;;;;5050425;28;20946;-79
2022/09/15 03:22:10;;;;;;;11.63;9.10;;;15.40;99.90;;;;;;5050794;28;20934;-76
2022/09/15 03:24:38;;;;;;;12.47;9.40;;;15.40;99.90;;;;;;5034538;28;20451;-76
2022/09/15 03:27:05;;;;;;;19.70;10.10;;;15.40;99.90;;;;;;5051309;28;20471;-76
2022/09/15 03:29:32;;;;;;;14.13;9.80;;;15.40;99.90;;;;;;5040657;28;20882;-77
2022/09/15 03:31:58;;;;;;;14.30;10.47;;;15.30;99.90;;;;;;5031565;28;20478;-76
2022/09/15 03:34:25;;;;;;;15.03;11.37;;;15.30;99.90;;;;;;5031662;28;20887;-76
2022/09/15 03:36:51;;;;;;;21.10;13.50;;;15.30;99.90;;;;;;5042760;28;20511;-76
2022/09/15 03:39:19;;;;;;;18.80;12.93;;;15.30;99.90;;;;;;5035043;28;20425;-76
2022/09/15 03:41:46;;;;;;;19.10;13.77;;;15.30;99.90;;;;;;5031654;28;20429;-77
2022/09/15 03:44:13;;;;;;;21.67;13.17;;;15.30;99.90;;;;;;5031527;28;20470;-77
2022/09/15 03:46:39;;;;;;;18.13;13.20;;;15.20;99.90;;;;;;5031384;28;20525;-76
2022/09/15 03:49:06;;;;;;;20.90;13.53;;;15.20;99.90;;;;;;5045408;28;20424;-76
2022/09/15 03:51:32;;;;;;;24.63;13.70;;;15.10;99.90;;;;;;5041051;28;20452;-76
2022/09/15 03:53:59;;;;;;;17.30;12.90;;;15.10;99.90;;;;;;5039218;28;20478;-78
2022/09/15 03:56:30;;;;;;;23.93;13.93;;;15.10;99.90;;;;;;5031225;28;20437;-76
2022/09/15 03:58:57;;;;;;;21.40;12.97;;;15.00;99.90;;;;;;5043847;28;20872;-76
2022/09/15 04:01:24;;;;;;;18.90;13.87;;;15.00;99.90;;;;;;5050346;28;20469;-76
2022/09/15 04:03:51;;;;;;;21.20;13.63;;;15.00;99.90;;;;;;5050367;28;20494;-76
2022/09/15 04:06:19;;;;;;;26.20;14.40;;;14.90;99.90;;;;;;5050725;28;20449;-77
2022/09/15 04:08:46;;;;;;;20.67;13.30;;;14.90;99.90;;;;;;5039161;28;20437;-76
2022/09/15 04:11:13;;;;;;;19.47;13.23;;;14.90;99.90;;;;;;5031361;28;20865;-76
2022/09/15 04:13:42;;;;;;;27.63;13.90;;;14.90;99.90;;;;;;5030996;28;20507;-76
2022/09/15 04:16:12;;;;;;;22.60;13.47;;;14.90;99.90;;;;;;5030955;28;20485;-76
2022/09/15 04:18:39;;;;;;;19.90;12.53;;;14.90;99.90;;;;;;5041198;28;21159;-76
2022/09/15 04:21:08;;;;;;;18.90;13.40;;;14.80;99.90;;;;;;5045103;28;20481;-76
2022/09/15 04:23:34;;;;;;;20.00;13.27;;;14.80;99.90;;;;;;5031013;28;20528;-75
2022/09/15 04:26:03;;;;;;;23.53;13.03;;;14.90;99.90;;;;;;5031053;28;20487;-76
2022/09/15 04:28:33;;;;;;;20.67;13.77;;;14.80;99.90;;;;;;5039151;28;20450;-77
2022/09/15 04:31:06;;;;;;;23.30;15.40;;;14.90;99.90;;;;;;5032919;28;20877;-76
2022/09/15 04:33:32;;;;;;;22.03;13.50;;;14.90;99.90;;;;;;5043087;28;20542;-76
2022/09/15 04:35:59;;;;;;;23.27;14.57;;;14.80;99.90;;;;;;5046456;28;20490;-76
2022/09/15 04:38:26;;;;;;;22.67;13.30;;;14.80;99.90;;;;;;5052107;28;20522;-78
2022/09/15 04:40:54;;;;;;;20.63;14.63;;;14.80;99.90;;;;;;5053317;28;20836;-77
2022/09/15 04:43:20;;;;;;;23.80;14.63;;;14.80;99.90;;;;;;5053922;28;20960;-77
2022/09/15 04:45:47;;;;;;;21.20;13.07;;;14.80;99.90;;;;;;5034916;28;20428;-77
2022/09/15 04:48:15;;;;;;;20.40;12.87;;;14.80;99.90;;;;;;5034767;28;20500;-77
2022/09/15 04:50:42;;;;;;;17.87;11.53;;;14.80;99.90;;;;;;5042560;28;20518;-76
2022/09/15 04:53:09;;;;;;;20.33;11.33;;;14.80;99.90;;;;;;5047959;28;20486;-76
2022/09/15 04:55:36;;;;;;;16.17;9.73;;;14.70;99.90;;;;;;5041420;28;20428;-77
2022/09/15 04:58:03;;;;;;;15.57;9.23;;;14.80;99.90;;;;;;5045615;28;20479;-76
2022/09/15 05:00:32;;;;;;;17.80;9.30;;;14.70;99.90;;;;;;5039235;28;20458;-77
2022/09/15 05:02:59;;;;;;;14.13;7.30;;;14.70;99.90;;;;;;5050939;28;20543;-76
2022/09/15 05:05:27;;;;;;;12.40;6.50;;;14.70;99.90;;;;;;5033951;28;20508;-78
2022/09/15 05:07:54;;;;;;;8.43;5.50;;;14.70;99.90;;;;;;5034108;28;21196;-76
2022/09/15 05:10:20;;;;;;;11.47;6.27;;;14.60;99.90;;;;;;5033839;28;20465;-77
2022/09/15 05:12:47;;;;;;;9.17;6.10;;;14.50;99.90;;;;;;5033968;28;20460;-77
2022/09/15 05:15:13;;;;;;;8.10;6.00;;;14.40;99.90;;;;;;5033848;28;20962;-73
2022/09/15 05:17:40;;;;;;;11.17;6.47;;;14.40;99.90;;;;;;5034030;28;20512;-75
2022/09/15 05:20:07;;;;;;;10.60;6.50;;;14.30;99.90;;;;;;5044641;28;20504;-76
2022/09/15 05:22:36;;;;;;;11.03;5.30;;;14.30;99.90;;;;;;5043528;28;20450;-76
2022/09/15 05:25:03;;;;;;;11.60;6.43;;;14.30;99.90;;;;;;5033870;28;20515;-74
2022/09/15 05:27:31;;;;;;;8.27;6.30;;;14.20;99.90;;;;;;5035604;28;20454;-76
2022/09/15 05:29:58;;;;;;;6.80;5.90;;;14.20;99.90;;;;;;5050993;28;20465;-76
2022/09/15 05:32:24;;;;;;;8.63;5.83;;;14.20;99.90;;;;;;5053176;28;20481;-75
2022/09/15 05:34:51;;;;;;;8.83;5.97;;;14.10;99.90;;;;;;5042223;28;20891;-74
2022/09/15 05:37:18;;;;;;;16.80;6.00;;;14.10;99.90;;;;;;5032622;28;20488;-75
2022/09/15 05:39:46;;;;;;;9.70;6.30;;;14.10;99.90;;;;;;5033037;28;20532;-75
2022/09/15 05:42:13;;;;;;;16.53;6.80;;;14.10;99.90;;;;;;5039878;28;20446;-74
2022/09/15 05:44:40;;;;;;;9.57;6.90;;;14.10;99.90;;;;;;5032597;28;20480;-74
2022/09/15 05:47:06;;;;;;;8.83;6.27;;;14.10;99.90;;;;;;5033561;28;20462;-75
2022/09/15 05:49:33;;;;;;;10.63;6.70;;;14.10;99.90;;;;;;5032622;28;20454;-74
2022/09/15 05:52:00;;;;;;;13.20;6.53;;;14.10;99.90;;;;;;5032415;28;20494;-74
2022/09/15 05:54:27;;;;;;;13.73;6.90;;;14.10;99.90;;;;;;5032537;28;20478;-75
2022/09/15 05:56:55;;;;;;;10.50;7.20;;;14.10;99.90;;;;;;5032459;28;20458;-74
2022/09/15 05:59:22;;;;;;;7.80;6.83;;;14.20;99.90;;;;;;5039824;28;20969;-75
2022/09/15 06:01:48;;;;;;;13.50;7.10;;;14.20;99.90;;;;;;5041551;28;20571;-76
2022/09/15 06:04:16;;;;;;;10.60;6.63;;;14.20;99.90;;;;;;5039500;28;20873;-76
2022/09/15 06:06:43;;;;;;;8.90;6.70;;;14.30;99.90;;;;;;5038772;28;20457;-76
2022/09/15 06:09:09;;;;;;;11.83;7.10;;;14.30;99.90;;;;;;5051551;28;20465;-76
2022/09/15 06:11:36;;;;;;;9.90;7.03;;;14.30;99.90;;;;;;5049215;28;20503;-76
2022/09/15 06:14:04;;;;;;;12.83;7.13;;;14.30;99.90;;;;;;5040169;28;20489;-77
2022/09/15 06:16:33;;;;;;;11.50;7.13;;;14.30;99.90;;;;;;5038422;28;20476;-76
2022/09/15 06:19:00;;;;;;;13.57;7.70;;;14.40;99.90;;;;;;5036011;28;20549;-76
2022/09/15 06:21:28;;;;;;;16.90;6.80;;;14.40;99.90;;;;;;5032229;28;20454;-76
2022/09/15 06:23:57;;;;;;;9.67;6.70;;;14.40;99.90;;;;;;5035171;28;20998;-75
2022/09/15 06:26:25;;;;;;;11.20;6.80;;;14.40;99.90;;;;;;5032957;28;20453;-76
2022/09/15 06:28:54;;;;;;;10.67;6.30;;;14.40;99.90;;;;;;5032236;28;20504;-76
2022/09/15 06:31:23;;;;;;;7.80;5.67;;;14.50;99.90;;;;;;5035827;28;20520;-76
2022/09/15 06:33:51;;;;;;;10.43;6.00;;;14.70;99.90;;;;;;5031788;28;20460;-75
2022/09/15 06:36:19;;;;;;;6.83;5.27;;;15.30;99.90;;;;;;5032781;28;20446;-76
2022/09/15 06:38:46;;;;;;;7.97;5.37;;;15.80;99.90;;;;;;5034407;28;20888;-76
2022/09/15 06:41:14;;;;;;;12.53;4.97;;;16.20;99.90;;;;;;5050604;28;20499;-76
2022/09/15 06:43:41;;;;;;;9.63;5.33;;;16.40;99.90;;;;;;5037558;28;20875;-76
2022/09/15 06:46:10;;;;;;;9.80;5.97;;;16.60;99.90;;;;;;5030832;28;20450;-76
2022/09/15 06:48:39;;;;;;;9.73;5.20;;;16.70;99.90;;;;;;5031820;28;20421;-76
2022/09/15 06:51:07;;;;;;;8.10;5.80;;;16.70;99.90;;;;;;5031381;28;20436;-76
2022/09/15 06:53:36;;;;;;;10.43;5.10;;;16.70;99.90;;;;;;5031119;28;21012;-76
2022/09/15 06:56:04;;;;;;;8.03;6.20;;;16.70;99.90;;;;;;5031102;28;20454;-76
2022/09/15 06:58:31;;;;;;;7.70;5.33;;;16.80;99.90;;;;;;5034518;28;20875;-76
2022/09/15 07:01:01;;;;;;;8.70;5.17;;;17.00;99.90;;;;;;5050741;28;20475;-76
2022/09/15 07:03:28;;;;;;;9.50;5.37;;;17.30;99.90;;;;;;5039305;28;20519;-76
2022/09/15 07:05:56;;;;;;;7.93;5.03;;;17.40;99.90;;;;;;5037166;28;20427;-75
2022/09/15 07:08:23;;;;;;;7.13;4.67;;;17.60;99.90;;;;;;5050177;28;20533;-76
2022/09/15 07:10:50;;;;;;;6.90;4.47;;;17.60;99.90;;;;;;5050534;28;20454;-76
2022/09/15 07:13:17;;;;;;;8.30;5.50;;;17.70;99.90;;;;;;5047562;28;20459;-75
2022/09/15 07:15:49;;;;;;;8.83;5.30;;;17.70;99.90;;;;;;5047613;28;20443;-75
2022/09/15 07:18:16;;;;;;;5.40;4.80;;;17.60;99.90;;;;;;5034247;28;20427;-77
2022/09/15 07:20:43;;;;;;;7.47;5.40;;;17.50;99.90;;;;;;5036799;28;20469;-75
2022/09/15 07:23:11;;;;;;;7.13;5.50;;;17.40;99.90;;;;;;5036435;28;20786;-75
2022/09/15 07:25:37;;;;;;;6.73;5.40;;;17.30;99.90;;;;;;5047266;28;20453;-75
2022/09/15 07:28:04;;;;;;;6.57;5.37;;;17.40;99.90;;;;;;5049112;28;20449;-76
2022/09/15 07:30:31;;;;;;;7.23;5.70;;;17.30;99.90;;;;;;5048476;28;20802;-76
2022/09/15 07:32:58;;;;;;;15.30;5.80;;;17.30;99.90;;;;;;5048395;28;20485;-76
2022/09/15 07:35:24;;;;;;;7.70;5.40;;;17.40;99.90;;;;;;5033067;28;20805;-75
2022/09/15 07:37:51;;;;;;;7.23;4.83;;;17.40;99.90;;;;;;5037791;28;20502;-76
2022/09/15 07:40:19;;;;;;;8.67;5.63;;;17.40;99.90;;;;;;5048784;28;20430;-76
2022/09/15 07:42:45;;;;;;;9.27;5.50;;;17.40;99.90;;;;;;5041061;28;20845;-75
2022/09/15 07:45:12;;;;;;;9.37;5.50;;;17.40;99.90;;;;;;5032498;28;20428;-75
2022/09/15 07:47:39;;;;;;;9.53;5.10;;;17.40;99.90;;;;;;5031982;28;20882;-76
2022/09/15 07:50:06;;;;;;;6.60;5.17;;;17.30;99.90;;;;;;5030744;28;20483;-75
2022/09/15 07:52:33;;;;;;;15.50;5.37;;;17.10;99.90;;;;;;5037336;28;20443;-74
2022/09/15 07:55:00;;;;;;;6.47;5.30;;;17.00;99.90;;;;;;5030431;28;20506;-75
2022/09/15 07:57:28;;;;;;;10.20;5.17;;;16.90;99.90;;;;;;5030982;28;20462;-74
2022/09/15 07:59:54;;;;;;;10.20;5.20;;;17.00;99.90;;;;;;5030882;28;20491;-74
2022/09/15 08:02:21;;;;;;;8.00;5.00;;;17.10;99.90;;;;;;5033867;28;21014;-74
2022/09/15 08:04:48;;;;;;;7.20;4.80;;;17.20;99.90;;;;;;5032009;28;20522;-75
2022/09/15 08:07:14;;;;;;;7.90;4.67;;;17.40;99.90;;;;;;5052961;28;20460;-75
2022/09/15 08:09:41;;;;;;;9.90;4.57;;;17.60;99.90;;;;;;5053942;28;20435;-74
2022/09/15 08:12:08;;;;;;;4.80;3.87;;;17.70;99.90;;;;;;5051794;28;20487;-75
2022/09/15 08:14:37;;;;;;;5.67;4.03;;;17.70;99.90;;;;;;5034374;28;20470;-74
2022/09/15 08:17:04;;;;;;;9.43;3.83;;;17.70;99.90;;;;;;5034244;28;20458;-75
2022/09/15 08:19:32;;;;;;;8.03;3.60;;;17.80;99.90;;;;;;5050048;28;20475;-75
2022/09/15 08:22:00;;;;;;;12.90;3.50;;;17.80;99.90;;;;;;5042331;28;20429;-75
2022/09/15 08:24:27;;;;;;;10.20;2.93;;;17.90;99.90;;;;;;5040139;28;20469;-75
2022/09/15 08:26:54;;;;;;;10.80;3.27;;;18.00;99.90;;;;;;5043679;28;20428;-74
2022/09/15 08:29:20;;;;;;;8.67;3.30;;;18.10;99.90;;;;;;5035379;28;20429;-74
2022/09/15 08:31:49;;;;;;;4.97;3.00;;;18.20;99.90;;;;;;5034688;28;20429;-75
2022/09/15 08:34:16;;;;;;;4.47;3.00;;;18.40;99.90;;;;;;5033814;28;21026;-74
2022/09/15 08:36:43;;;;;;;4.07;2.70;;;18.50;99.90;;;;;;5042073;28;20457;-75
2022/09/15 08:39:10;;;;;;;3.20;2.90;;;18.70;99.90;;;;;;5044769;28;20582;-75
2022/09/15 08:41:39;;;;;;;11.43;3.30;;;18.80;99.90;;;;;;5034485;28;20508;-75
2022/09/15 08:44:19;;;;;;;6.70;3.20;;;18.90;99.90;;;;;;5035512;28;20474;-75
2022/09/15 08:46:52;;;;;;;5.97;3.37;;;18.80;99.90;;;;;;5041043;28;20453;-74
2022/09/15 08:49:23;;;;;;;8.10;3.40;;;19.00;99.90;;;;;;5052495;28;20456;-75
2022/09/15 08:51:51;;;;;;;3.00;2.70;;;19.10;99.90;;;;;;5053894;28;20457;-75
2022/09/15 08:54:22;;;;;;;5.57;3.97;;;19.40;99.90;;;;;;5035808;28;20459;-76
2022/09/15 08:56:49;;;;;;;6.13;4.00;;;19.40;99.90;;;;;;5034109;28;20494;-75
2022/09/15 08:59:17;;;;;;;8.93;4.60;;;19.40;99.90;;;;;;5035377;28;20479;-75
2022/09/15 09:01:57;;;;;;;5.93;4.50;;;19.30;99.90;;;;;;5051519;28;20453;-76
2022/09/15 09:04:39;;;;;;;11.00;4.27;;;19.20;99.90;;;;;;5036753;28;20503;-76
2022/09/15 09:07:17;;;;;;;8.07;3.70;;;19.00;99.90;;;;;;5053293;28;20449;-76
2022/09/15 09:09:52;;;;;;;5.80;3.63;;;19.00;99.90;;;;;;5033872;28;20454;-76
2022/09/15 09:12:33;;;;;;;4.77;3.90;;;19.10;99.90;;;;;;5034088;28;20512;-76
2022/09/15 09:15:14;;;;;;;5.20;3.40;;;19.20;99.90;;;;;;5047503;28;20448;-76
2022/09/15 09:18:06;;;;;;;3.70;3.30;;;19.60;99.90;;;;;;5043003;28;20450;-76
2022/09/15 09:20:43;;;;;;;3.90;3.60;;;20.00;99.90;;;;;;5036285;28;20510;-74
2022/09/15 09:23:14;;;;;;;5.83;3.73;;;20.20;99.90;;;;;;5035633;28;20500;-75
2022/09/15 09:25:42;;;;;;;5.17;3.70;;;20.30;99.90;;;;;;5033598;28;20425;-74
2022/09/15 09:28:29;;;;;;;4.90;4.40;;;20.10;99.90;;;;;;5040111;28;20466;-74
2022/09/15 09:31:01;;;;;;;9.10;5.03;;;20.00;99.90;;;;;;5053004;28;20457;-74
2022/09/15 09:33:38;;;;;;;6.00;4.70;;;19.80;99.90;;;;;;5051548;28;20526;-74
2022/09/15 09:36:05;;;;;;;7.73;5.17;;;19.70;99.90;;;;;;5033406;28;20950;-75
2022/09/15 09:38:36;;;;;;;8.30;5.93;;;19.70;99.90;;;;;;5050766;28;20511;-74
2022/09/15 09:41:05;;;;;;;8.20;5.27;;;19.70;99.90;;;;;;5052797;28;20457;-75
2022/09/15 09:43:32;;;;;;;9.13;5.63;;;19.70;99.90;;;;;;5042630;28;20473;-75
2022/09/15 09:46:00;;;;;;;5.80;5.20;;;19.70;99.90;;;;;;5033408;28;20516;-74
2022/09/15 09:48:29;;;;;;;7.90;5.30;;;19.70;99.90;;;;;;5033881;28;20436;-75
2022/09/15 09:50:56;;;;;;;8.53;5.73;;;19.70;99.90;;;;;;5033533;28;20481;-73
2022/09/15 09:53:29;;;;;;;11.77;5.90;;;19.70;99.90;;;;;;5033068;28;20474;-73
2022/09/15 09:56:16;;;;;;;8.30;5.50;;;19.80;99.90;;;;;;5033103;28;20462;-74
2022/09/15 09:58:44;;;;;;;12.17;5.87;;;19.90;99.90;;;;;;5033329;28;20465;-74
2022/09/15 10:01:13;;;;;;;12.40;6.13;;;20.00;99.90;;;;;;5036746;28;20495;-74
2022/09/15 10:03:42;;;;;;;11.27;6.60;;;19.80;99.90;;;;;;5051545;28;20473;-75
2022/09/15 10:06:13;;;;;;;11.07;6.80;;;19.60;99.90;;;;;;5050310;28;20503;-74
2022/09/15 10:08:54;;;;;;;12.10;8.10;;;19.30;99.90;;;;;;5051934;28;21022;-74
2022/09/15 10:11:21;;;;;;;12.00;8.90;;;19.00;99.90;;;;;;5052580;28;20438;-74
2022/09/15 10:13:54;;;;;;;18.27;9.30;;;18.70;99.90;;;;;;5051901;28;20481;-74
2022/09/15 10:16:22;;;;;;;11.60;8.57;;;18.40;99.90;;;;;;5040075;28;20476;-74
2022/09/15 10:18:50;;;;;;;13.43;8.70;;;18.10;99.90;;;;;;5051884;28;20457;-74
2022/09/15 10:21:23;;;;;;;9.60;7.87;;;18.00;99.90;;;;;;5052401;28;20478;-74
2022/09/15 10:23:49;;;;;;;12.20;8.80;;;18.00;99.90;;;;;;5040673;28;20440;-74
2022/09/15 10:26:31;;;;;;;12.40;8.50;;;17.90;99.90;;;;;;5032519;28;20433;-74
2022/09/15 10:29:13;;;;;;;14.73;9.07;;;18.00;99.90;;;;;;5040268;28;20454;-74
2022/09/15 10:31:40;;;;;;;16.63;9.17;;;18.20;99.90;;;;;;5038771;28;20427;-75
2022/09/15 10:34:26;;;;;;;12.10;9.50;;;18.40;99.90;;;;;;5050416;28;20481;-72
2022/09/15 10:36:58;;;;;;;11.63;9.13;;;18.40;99.90;;;;;;5032768;28;20457;-72
2022/09/15 10:39:35;;;;;;;17.77;9.03;;;18.50;99.90;;;;;;5037143;28;20839;-72
2022/09/15 10:42:10;;;;;;;11.73;8.97;;;18.50;99.90;;;;;;5050661;28;20457;-72
2022/09/15 10:44:46;;;;;;;12.13;8.37;;;18.40;99.90;;;;;;5050028;28;20447;-72
2022/09/15 10:47:24;;;;;;;15.63;9.67;;;18.50;99.90;;;;;;5039129;28;20968;-72
2022/09/15 10:50:06;;;;;;;11.00;8.30;;;18.60;99.90;;;;;;5031228;28;20440;-72
2022/09/15 10:52:40;;;;;;;14.50;9.40;;;18.60;99.90;;;;;;5031948;28;20469;-72
2022/09/15 10:55:21;;;;;;;13.17;9.03;;;18.70;99.90;;;;;;5034194;28;21074;-72
2022/09/15 10:58:06;;;;;;;15.97;9.03;;;18.80;99.90;;;;;;5046129;28;21018;-73
2022/09/15 11:00:40;;;;;;;15.67;9.90;;;19.00;99.90;;;;;;5050591;28;20952;-73
2022/09/15 11:03:22;;;;;;;12.17;9.00;;;19.20;99.90;;;;;;5047326;28;20524;-73
2022/09/15 11:06:00;;;;;;;13.30;8.33;;;19.20;99.90;;;;;;5031041;28;20488;-73
2022/09/15 11:08:42;;;;;;;13.00;8.43;;;19.10;99.90;;;;;;5037836;28;20519;-72
2022/09/15 11:11:15;;;;;;;19.30;8.80;;;19.30;99.90;;;;;;5049413;28;20445;-72
2022/09/15 11:13:55;;;;;;;14.27;8.23;;;19.60;99.90;;;;;;5050257;28;20629;-72
2022/09/15 11:16:36;;;;;;;12.27;8.20;;;19.70;99.90;;;;;;5050818;28;20449;-72
2022/09/15 11:19:16;;;;;;;11.03;7.87;;;19.70;99.90;;;;;;5040992;28;20465;-72
2022/09/15 11:21:47;;;;;;;11.53;7.90;;;19.70;99.90;;;;;;5032284;28;20903;-72
2022/09/15 11:24:28;;;;;;;13.57;8.13;;;19.90;99.90;;;;;;5042950;28;21066;-72
2022/09/15 11:27:01;;;;;;;11.83;7.60;;;20.00;99.90;;;;;;5038647;28;20869;-72
2022/09/15 11:29:33;;;;;;;10.73;7.50;;;20.00;99.90;;;;;;5050490;28;20882;-71
2022/09/15 11:32:04;;;;;;;10.80;7.20;;;19.90;99.90;;;;;;5050919;28;20480;-71
2022/09/15 11:34:35;;;;;;;10.73;7.43;;;19.90;99.90;;;;;;5050793;28;20856;-71
2022/09/15 11:37:09;;;;;;;12.03;6.50;;;19.70;99.90;;;;;;5041139;28;20451;-71
2022/09/15 11:39:40;;;;;;;15.00;7.30;;;19.50;99.90;;;;;;5050657;28;20454;-71
2022/09/15 11:42:10;;;;;;;8.47;6.93;;;19.30;99.90;;;;;;5050313;28;20449;-72
2022/09/15 11:44:40;;;;;;;10.50;6.70;;;19.20;99.90;;;;;;5037662;28;20441;-71
2022/09/15 11:47:15;;;;;;;7.33;5.57;;;19.20;99.90;;;;;;5040184;28;20455;-71
2022/09/15 11:49:47;;;;;;;10.07;7.40;;;19.20;99.90;;;;;;5031478;28;20515;-71
2022/09/15 11:52:36;;;;;;;11.90;7.30;;;19.30;99.90;;;;;;5038341;28;20912;-72
2022/09/15 11:55:13;;;;;;;13.90;7.40;;;19.50;99.90;;;;;;5031313;28;20504;-72
2022/09/15 11:57:46;;;;;;;8.40;5.93;;;19.90;99.90;;;;;;5029808;28;20921;-75
2022/09/15 12:00:14;;;;;;;9.80;5.77;;;20.60;99.90;;;;;;5049838;28;20503;-75
2022/09/15 12:02:47;;;;;;;5.93;4.90;;;21.30;99.90;;;;;;5045775;28;20454;-76
2022/09/15 12:05:17;;;;;;;12.37;5.20;;;21.70;99.90;;;;;;5032216;28;20458;-76
2022/09/15 12:07:50;;;;;;;5.47;4.33;;;21.80;99.90;;;;;;5035070;28;20457;-76
2022/09/15 12:10:21;;;;;;;4.50;3.83;;;21.60;99.90;;;;;;5050017;28;20453;-76
2022/09/15 12:12:50;;;;;;;5.63;3.57;;;21.20;99.90;;;;;;5050551;28;20511;-76
2022/09/15 12:15:25;;;;;;;6.73;3.60;;;20.70;99.90;;;;;;5033631;28;21002;-76
2022/09/15 12:17:59;;;;;;;3.80;3.30;;;20.30;99.90;;;;;;5036594;28;20511;-75
2022/09/15 12:20:30;;;;;;;4.83;3.73;;;20.00;99.90;;;;;;5042616;28;20457;-75
2022/09/15 12:23:05;;;;;;;4.43;4.00;;;19.70;99.90;;;;;;5045324;28;20477;-75
2022/09/15 12:25:40;;;;;;;9.03;4.20;;;19.50;99.90;;;;;;5031614;28;20449;-74
2022/09/15 12:28:36;;;;;;;4.13;3.50;;;19.40;99.90;;;;;;5031435;28;20441;-75
2022/09/15 12:31:24;;;;;;;5.60;3.60;;;19.20;99.90;;;;;;5030999;28;20512;-75
2022/09/15 12:33:55;;;;;;;4.53;2.70;;;19.00;99.90;;;;;;5043491;28;20473;-75
2022/09/15 12:36:46;;;;;;;3.83;3.17;;;18.90;99.90;;;;;;5041538;28;20532;-76
2022/09/15 12:39:30;;;;;;;3.70;3.40;;;18.70;99.90;;;;;;5034810;28;20423;-75
2022/09/15 12:42:06;;;;;;;4.77;3.27;;;18.50;99.90;;;;;;5030827;28;20911;-75
2022/09/15 12:44:35;;;;;;;3.50;3.20;;;18.40;99.90;;;;;;5036413;28;20477;-76
2022/09/15 12:47:05;;;;;;;8.03;3.47;;;18.40;99.90;;;;;;5032227;28;20454;-76
2022/09/15 12:49:36;;;;;;;7.50;3.70;;;18.30;99.90;;;;;;5047560;28;20457;-75
2022/09/15 12:52:06;;;;;;;11.07;4.10;;;18.40;99.90;;;;;;5050968;28;20461;-75
2022/09/15 12:54:38;;;;;;;5.50;3.43;;;18.40;99.90;;;;;;5051338;28;20477;-76
2022/09/15 12:57:06;;;;;;;5.90;3.95;;;18.50;99.90;;;;;;5048124;28;20803;-76